Time;durP1;ratioP1;P1;durP2;ratioP2;P2;SDS_P1;SDS_P2;PMS_P1;PMS_P2;Temp;Humidity;BMP_temperature;BMP_pressure;BME280_temperature;BME280_humidity;BME280_pressure;Samples;Min_cycle;Max_cycle;Signal;HPM_P1;HPM_P2
2024/03/04 00:01:27;;;;;;;21.13;10.57;;;;;;;;;;5112196;28;20152;-63
2024/03/04 00:03:52;;;;;;;20.77;9.93;;;;;;;;;;5112405;28;20019;-58
2024/03/04 00:06:17;;;;;;;28.25;10.85;;;;;;;;;;5112652;28;20028;-63
2024/03/04 00:08:43;;;;;;;22.83;10.55;;;;;;;;;;5104792;28;20450;-64
2024/03/04 00:11:10;;;;;;;23.90;10.18;;;;;;;;;;5092401;28;20466;-63
2024/03/04 00:13:36;;;;;;;24.67;9.70;;;;;;;;;;5105943;28;20030;-62
2024/03/04 00:16:05;;;;;;;24.00;9.80;;;;;;;;;;5116155;28;20031;-63
2024/03/04 00:18:30;;;;;;;25.92;10.45;;;;;;;;;;5116454;28;20438;-62
2024/03/04 00:20:56;;;;;;;23.75;9.85;;;;;;;;;;5116163;28;20049;-62
2024/03/04 00:23:21;;;;;;;26.42;10.90;;;;;;;;;;5116259;28;20024;-63
2024/03/04 00:25:47;;;;;;;22.95;10.20;;;;;;;;;;5116485;28;20074;-64
2024/03/04 00:28:12;;;;;;;21.60;10.13;;;;;;;;;;5102465;28;20070;-64
2024/03/04 00:30:37;;;;;;;22.40;10.20;;;;;;;;;;5095633;28;20035;-63
2024/03/04 00:33:03;;;;;;;23.15;9.88;;;;;;;;;;5096370;28;20047;-63
2024/03/04 00:35:28;;;;;;;24.77;10.50;;;;;;;;;;5095377;28;20119;-63
2024/03/04 00:37:54;;;;;;;25.33;9.73;;;;;;;;;;5095405;28;20020;-59
2024/03/04 00:40:19;;;;;;;20.40;10.35;;;;;;;;;;5096007;28;20400;-63
2024/03/04 00:42:45;;;;;;;25.38;10.52;;;;;;;;;;5102723;28;20015;-63
2024/03/04 00:45:12;;;;;;;23.38;10.57;;;;;;;;;;5115134;28;20042;-63
2024/03/04 00:47:37;;;;;;;23.23;11.02;;;;;;;;;;5104665;28;20334;-63
2024/03/04 00:50:03;;;;;;;27.30;10.98;;;;;;;;;;5095917;28;20024;-62
2024/03/04 00:52:32;;;;;;;21.73;10.98;;;;;;;;;;5095196;28;20062;-64
2024/03/04 00:54:58;;;;;;;21.40;10.52;;;;;;;;;;5094648;28;20036;-63
2024/03/04 00:57:23;;;;;;;23.52;11.15;;;;;;;;;;5101740;28;20502;-63
2024/03/04 00:59:49;;;;;;;25.33;11.30;;;;;;;;;;5104843;28;20028;-63
2024/03/04 01:02:14;;;;;;;22.02;11.02;;;;;;;;;;5095084;28;20089;-62
2024/03/04 01:04:40;;;;;;;23.05;11.30;;;;;;;;;;5094667;28;20114;-63
2024/03/04 01:07:05;;;;;;;22.50;11.43;;;;;;;;;;5099884;28;20020;-63
2024/03/04 01:09:31;;;;;;;27.60;11.52;;;;;;;;;;5106131;28;20032;-62
2024/03/04 01:11:57;;;;;;;29.80;11.45;;;;;;;;;;5099317;28;20038;-62
2024/03/04 01:14:22;;;;;;;24.67;11.48;;;;;;;;;;5115187;28;20032;-63
2024/03/04 01:16:49;;;;;;;27.92;12.43;;;;;;;;;;5115289;28;20123;-63
2024/03/04 01:19:15;;;;;;;24.23;11.32;;;;;;;;;;5114716;28;20027;-63
2024/03/04 01:21:40;;;;;;;25.00;10.75;;;;;;;;;;5115176;28;20023;-62
2024/03/04 01:24:06;;;;;;;28.02;11.77;;;;;;;;;;5114732;28;20023;-63
2024/03/04 01:26:32;;;;;;;21.42;10.40;;;;;;;;;;5113385;28;20042;-63
2024/03/04 01:28:58;;;;;;;24.15;11.30;;;;;;;;;;5115325;28;20111;-61
2024/03/04 01:31:23;;;;;;;23.38;11.77;;;;;;;;;;5115355;28;20073;-64
2024/03/04 01:33:49;;;;;;;24.73;11.20;;;;;;;;;;5114581;28;20027;-63
2024/03/04 01:36:15;;;;;;;28.08;11.20;;;;;;;;;;5114882;28;20045;-62
2024/03/04 01:38:41;;;;;;;24.15;11.15;;;;;;;;;;5115158;28;20053;-63
2024/03/04 01:41:06;;;;;;;26.42;12.25;;;;;;;;;;5113049;28;20092;-63
2024/03/04 01:43:32;;;;;;;25.98;11.57;;;;;;;;;;5114479;28;20023;-62
2024/03/04 01:45:57;;;;;;;23.88;11.63;;;;;;;;;;5113479;28;20096;-61
2024/03/04 01:48:23;;;;;;;25.88;11.40;;;;;;;;;;5094874;28;20448;-63
2024/03/04 01:50:49;;;;;;;28.30;12.10;;;;;;;;;;5094813;28;20386;-63
2024/03/04 01:53:15;;;;;;;25.20;12.20;;;;;;;;;;5093744;28;20044;-63
2024/03/04 01:55:42;;;;;;;25.52;11.88;;;;;;;;;;5093795;28;20059;-63
2024/03/04 01:58:09;;;;;;;22.98;11.82;;;;;;;;;;5098810;28;20019;-61
2024/03/04 02:00:39;;;;;;;24.05;11.40;;;;;;;;;;5114376;28;20020;-63
2024/03/04 02:03:06;;;;;;;22.52;11.23;;;;;;;;;;5114146;28;20107;-64
2024/03/04 02:05:32;;;;;;;23.35;11.38;;;;;;;;;;5109561;28;20369;-63
2024/03/04 02:07:58;;;;;;;25.40;12.50;;;;;;;;;;5114576;28;20031;-63
2024/03/04 02:10:23;;;;;;;27.13;12.20;;;;;;;;;;5113704;28;20028;-63
2024/03/04 02:12:49;;;;;;;21.98;11.77;;;;;;;;;;5112455;28;20635;-62
2024/03/04 02:15:14;;;;;;;32.75;12.20;;;;;;;;;;5113968;28;20081;-63
2024/03/04 02:17:40;;;;;;;31.13;12.05;;;;;;;;;;5111876;27;20028;-63
2024/03/04 02:20:10;;;;;;;26.23;11.95;;;;;;;;;;5108596;28;20430;-64
2024/03/04 02:22:35;;;;;;;23.00;11.10;;;;;;;;;;5098617;28;20038;-67
2024/03/04 02:25:01;;;;;;;22.27;11.23;;;;;;;;;;5113791;28;20024;-59
2024/03/04 02:27:26;;;;;;;20.67;10.48;;;;;;;;;;5114184;28;20020;-64
2024/03/04 02:29:52;;;;;;;24.00;12.15;;;;;;;;;;5113847;28;20028;-65
2024/03/04 02:32:17;;;;;;;23.33;11.60;;;;;;;;;;5109121;27;20031;-63
2024/03/04 02:34:43;;;;;;;24.58;11.32;;;;;;;;;;5092785;28;20024;-63
2024/03/04 02:37:08;;;;;;;25.45;11.45;;;;;;;;;;5093822;28;20415;-64
2024/03/04 02:39:35;;;;;;;26.40;11.32;;;;;;;;;;5093055;28;20122;-60
2024/03/04 02:42:00;;;;;;;25.38;11.32;;;;;;;;;;5113478;28;20023;-65
2024/03/04 02:44:27;;;;;;;26.45;11.35;;;;;;;;;;5114181;28;20049;-64
2024/03/04 02:46:52;;;;;;;25.52;11.45;;;;;;;;;;5113816;28;20100;-65
2024/03/04 02:49:18;;;;;;;25.23;11.63;;;;;;;;;;5113402;28;20024;-64
2024/03/04 02:51:43;;;;;;;25.63;10.43;;;;;;;;;;5113157;28;20055;-64
2024/03/04 02:54:09;;;;;;;22.58;10.50;;;;;;;;;;5113876;28;20031;-64
2024/03/04 02:56:34;;;;;;;22.85;10.35;;;;;;;;;;5112991;28;20422;-63
2024/03/04 02:59:00;;;;;;;24.02;10.52;;;;;;;;;;5113250;28;20016;-65
2024/03/04 03:01:28;;;;;;;23.08;10.43;;;;;;;;;;5113022;27;20030;-64
2024/03/04 03:03:54;;;;;;;25.85;10.85;;;;;;;;;;5111843;28;20035;-65
2024/03/04 03:06:20;;;;;;;22.13;11.20;;;;;;;;;;5113555;28;20042;-65
2024/03/04 03:08:45;;;;;;;25.77;11.27;;;;;;;;;;5113009;28;20015;-64
2024/03/04 03:11:11;;;;;;;25.60;10.85;;;;;;;;;;5112955;28;20030;-64
2024/03/04 03:13:37;;;;;;;29.52;11.15;;;;;;;;;;5113477;28;20373;-64
2024/03/04 03:16:03;;;;;;;23.02;11.35;;;;;;;;;;5113513;28;20046;-64
2024/03/04 03:18:29;;;;;;;25.58;11.38;;;;;;;;;;5101593;28;20031;-65
2024/03/04 03:20:54;;;;;;;27.20;11.43;;;;;;;;;;5106713;28;20106;-64
2024/03/04 03:23:20;;;;;;;23.77;11.30;;;;;;;;;;5113143;28;20437;-63
2024/03/04 03:25:45;;;;;;;19.52;10.43;;;;;;;;;;5104825;28;20020;-64
2024/03/04 03:28:10;;;;;;;22.48;10.77;;;;;;;;;;5092748;28;20020;-63
2024/03/04 03:30:36;;;;;;;20.77;10.98;;;;;;;;;;5092641;28;20032;-63
2024/03/04 03:33:01;;;;;;;24.13;10.95;;;;;;;;;;5094706;28;20382;-65
2024/03/04 03:35:26;;;;;;;27.83;11.82;;;;;;;;;;5092722;28;20040;-64
2024/03/04 03:37:52;;;;;;;27.63;11.35;;;;;;;;;;5092514;28;20059;-64
2024/03/04 03:40:17;;;;;;;21.58;10.88;;;;;;;;;;5092263;28;20028;-64
2024/03/04 03:42:43;;;;;;;23.90;10.55;;;;;;;;;;5092839;28;20384;-64
2024/03/04 03:45:09;;;;;;;24.42;11.13;;;;;;;;;;5092371;28;20514;-65
2024/03/04 03:47:34;;;;;;;19.85;10.50;;;;;;;;;;5096022;28;20342;-63
2024/03/04 03:50:01;;;;;;;18.98;9.90;;;;;;;;;;5096640;28;20020;-65
2024/03/04 03:52:31;;;;;;;21.13;9.93;;;;;;;;;;5096334;28;20048;-63
2024/03/04 03:54:57;;;;;;;22.90;10.80;;;;;;;;;;5096220;28;20028;-65
2024/03/04 03:57:22;;;;;;;25.08;10.30;;;;;;;;;;5096305;28;20024;-62
2024/03/04 03:59:48;;;;;;;24.65;10.38;;;;;;;;;;5096051;28;20024;-63
2024/03/04 04:02:13;;;;;;;24.02;10.63;;;;;;;;;;5102953;28;20181;-63
2024/03/04 04:04:38;;;;;;;26.52;11.43;;;;;;;;;;5116424;28;20077;-63
2024/03/04 04:07:04;;;;;;;29.52;11.20;;;;;;;;;;5113408;28;20106;-63
2024/03/04 04:09:29;;;;;;;26.02;11.15;;;;;;;;;;5096242;28;20028;-64
2024/03/04 04:11:55;;;;;;;22.13;10.55;;;;;;;;;;5095832;28;20070;-64
2024/03/04 04:14:20;;;;;;;25.42;11.70;;;;;;;;;;5096026;28;20018;-62
2024/03/04 04:16:45;;;;;;;23.58;11.00;;;;;;;;;;5100785;28;20331;-64
2024/03/04 04:19:11;;;;;;;26.38;11.43;;;;;;;;;;5116147;28;20027;-64
2024/03/04 04:21:36;;;;;;;22.98;11.38;;;;;;;;;;5114796;28;20025;-60
2024/03/04 04:24:02;;;;;;;26.70;11.07;;;;;;;;;;5098979;28;20035;-64
2024/03/04 04:26:27;;;;;;;24.77;11.50;;;;;;;;;;5096317;28;20400;-64
2024/03/04 04:28:53;;;;;;;25.38;11.68;;;;;;;;;;5111944;28;20023;-64
2024/03/04 04:31:20;;;;;;;23.63;11.48;;;;;;;;;;5112563;28;20024;-63
2024/03/04 04:33:45;;;;;;;25.10;11.95;;;;;;;;;;5095694;28;20028;-63
2024/03/04 04:36:10;;;;;;;26.90;12.30;;;;;;;;;;5095472;28;20063;-64
2024/03/04 04:38:36;;;;;;;24.27;12.55;;;;;;;;;;5095937;28;20062;-65
2024/03/04 04:41:01;;;;;;;25.90;12.27;;;;;;;;;;5096279;28;20016;-66
2024/03/04 04:43:26;;;;;;;28.77;12.27;;;;;;;;;;5103558;28;20028;-65
2024/03/04 04:45:52;;;;;;;25.73;12.40;;;;;;;;;;5113115;28;20018;-65
2024/03/04 04:48:18;;;;;;;26.55;12.48;;;;;;;;;;5095509;28;20028;-63
2024/03/04 04:50:43;;;;;;;29.15;11.77;;;;;;;;;;5111233;28;20384;-62
2024/03/04 04:53:09;;;;;;;27.08;13.27;;;;;;;;;;5105031;28;20040;-59
2024/03/04 04:55:35;;;;;;;27.50;12.60;;;;;;;;;;5094985;28;20036;-68
2024/03/04 04:58:00;;;;;;;27.25;12.27;;;;;;;;;;5094833;28;20362;-65
2024/03/04 05:00:26;;;;;;;29.77;12.35;;;;;;;;;;5096889;28;20023;-66
2024/03/04 05:02:51;;;;;;;26.13;12.15;;;;;;;;;;5114984;28;20353;-64
2024/03/04 05:05:21;;;;;;;23.80;11.13;;;;;;;;;;5115505;28;20019;-63
2024/03/04 05:07:47;;;;;;;23.65;12.48;;;;;;;;;;5115644;28;20076;-61
2024/03/04 05:10:13;;;;;;;25.40;12.85;;;;;;;;;;5115760;28;20024;-64
2024/03/04 05:12:38;;;;;;;22.52;11.18;;;;;;;;;;5103929;28;20401;-65
2024/03/04 05:15:04;;;;;;;20.65;10.82;;;;;;;;;;5109241;28;20114;-65
2024/03/04 05:17:30;;;;;;;28.20;11.55;;;;;;;;;;5115216;28;20023;-63
2024/03/04 05:19:55;;;;;;;21.48;10.75;;;;;;;;;;5114555;28;20077;-62
2024/03/04 05:22:21;;;;;;;23.38;10.15;;;;;;;;;;5113280;28;20028;-64
2024/03/04 05:24:46;;;;;;;21.92;10.75;;;;;;;;;;5095038;28;20346;-64
2024/03/04 05:27:12;;;;;;;20.50;11.48;;;;;;;;;;5094645;28;20024;-61
2024/03/04 05:29:37;;;;;;;23.08;10.77;;;;;;;;;;5102827;28;20490;-63
2024/03/04 05:32:04;;;;;;;21.05;11.35;;;;;;;;;;5114676;28;20023;-63
2024/03/04 05:34:29;;;;;;;21.83;11.15;;;;;;;;;;5108876;28;20020;-63
2024/03/04 05:36:58;;;;;;;26.95;11.25;;;;;;;;;;5094225;28;20040;-63
2024/03/04 05:39:23;;;;;;;20.67;11.00;;;;;;;;;;5094256;28;20053;-61
2024/03/04 05:41:49;;;;;;;24.05;11.80;;;;;;;;;;5103765;28;20354;-65
2024/03/04 05:44:15;;;;;;;21.75;11.02;;;;;;;;;;5106590;28;20055;-63
2024/03/04 05:46:41;;;;;;;27.00;10.68;;;;;;;;;;5093983;28;20028;-65
2024/03/04 05:49:08;;;;;;;19.92;10.93;;;;;;;;;;5093888;28;20024;-63
2024/03/04 05:51:38;;;;;;;26.52;11.57;;;;;;;;;;5093823;28;20083;-63
2024/03/04 05:54:03;;;;;;;24.25;11.00;;;;;;;;;;5105628;28;20036;-63
2024/03/04 05:56:28;;;;;;;22.23;11.18;;;;;;;;;;5114225;28;20042;-64
2024/03/04 05:58:54;;;;;;;23.20;11.45;;;;;;;;;;5107545;28;20430;-63
2024/03/04 06:01:20;;;;;;;26.98;12.25;;;;;;;;;;5093653;28;20062;-64
2024/03/04 06:03:46;;;;;;;19.92;11.00;;;;;;;;;;5094150;28;20085;-64
2024/03/04 06:06:11;;;;;;;24.58;11.40;;;;;;;;;;5100691;28;20398;-63
2024/03/04 06:08:36;;;;;;;23.15;10.45;;;;;;;;;;5113448;28;20483;-63
2024/03/04 06:11:03;;;;;;;18.98;10.25;;;;;;;;;;5113950;28;20031;-65
2024/03/04 06:13:29;;;;;;;20.88;10.35;;;;;;;;;;5097612;28;20350;-64
2024/03/04 06:15:54;;;;;;;18.58;10.43;;;;;;;;;;5093427;28;20047;-63
2024/03/04 06:18:19;;;;;;;19.23;10.38;;;;;;;;;;5093748;28;20149;-64
2024/03/04 06:20:45;;;;;;;22.90;11.45;;;;;;;;;;5092612;28;20302;-64
2024/03/04 06:23:11;;;;;;;21.75;11.45;;;;;;;;;;5094451;28;20028;-64
2024/03/04 06:25:36;;;;;;;26.50;10.27;;;;;;;;;;5073153;28;20117;-63
2024/03/04 06:28:02;;;;;;;20.25;10.50;;;;;;;;;;5101310;28;20088;-64
2024/03/04 06:30:28;;;;;;;27.38;10.75;;;;;;;;;;5095746;28;20067;-64
2024/03/04 06:32:53;;;;;;;22.70;10.73;;;;;;;;;;5093057;28;20451;-64
2024/03/04 06:35:19;;;;;;;22.27;10.48;;;;;;;;;;5093411;28;20047;-64
2024/03/04 06:37:44;;;;;;;20.10;10.50;;;;;;;;;;5093606;28;20357;-58
2024/03/04 06:40:10;;;;;;;24.17;10.55;;;;;;;;;;5093020;28;20016;-63
2024/03/04 06:42:35;;;;;;;18.38;10.75;;;;;;;;;;5103920;28;20027;-63
2024/03/04 06:45:00;;;;;;;21.83;10.20;;;;;;;;;;5106282;27;20402;-58
2024/03/04 06:47:26;;;;;;;22.73;10.88;;;;;;;;;;5093153;28;20312;-64
2024/03/04 06:49:51;;;;;;;24.50;10.50;;;;;;;;;;5092755;28;20431;-64
2024/03/04 06:52:17;;;;;;;23.92;10.80;;;;;;;;;;5093015;28;20109;-62
2024/03/04 06:54:43;;;;;;;23.65;10.05;;;;;;;;;;5094038;28;20032;-63
2024/03/04 06:57:10;;;;;;;18.35;10.15;;;;;;;;;;5102301;28;20032;-64
2024/03/04 06:59:37;;;;;;;20.48;10.73;;;;;;;;;;5112960;28;20044;-63
2024/03/04 07:02:02;;;;;;;22.88;12.02;;;;;;;;;;5113168;28;20034;-62
2024/03/04 07:04:27;;;;;;;19.35;11.13;;;;;;;;;;5113467;28;20411;-64
2024/03/04 07:06:53;;;;;;;18.20;11.18;;;;;;;;;;5111569;27;20016;-63
2024/03/04 07:09:18;;;;;;;24.38;11.50;;;;;;;;;;5094237;28;20036;-62
2024/03/04 07:11:43;;;;;;;22.00;11.05;;;;;;;;;;5100567;28;20050;-63
2024/03/04 07:14:09;;;;;;;24.30;11.45;;;;;;;;;;5113050;28;20033;-64
2024/03/04 07:16:34;;;;;;;24.95;11.77;;;;;;;;;;5113195;28;20110;-64
2024/03/04 07:19:00;;;;;;;20.17;11.75;;;;;;;;;;5112680;28;20030;-64
2024/03/04 07:21:25;;;;;;;17.45;10.35;;;;;;;;;;5112396;28;20012;-63
2024/03/04 07:23:51;;;;;;;20.75;10.70;;;;;;;;;;5113479;28;20027;-64
2024/03/04 07:26:18;;;;;;;21.55;11.63;;;;;;;;;;5106304;28;20423;-65
2024/03/04 07:28:44;;;;;;;24.05;12.25;;;;;;;;;;5094968;28;20279;-63
2024/03/04 07:31:10;;;;;;;20.75;11.38;;;;;;;;;;5092107;28;20038;-64
2024/03/04 07:33:35;;;;;;;21.67;10.88;;;;;;;;;;5092357;28;20089;-65
2024/03/04 07:36:01;;;;;;;23.08;11.32;;;;;;;;;;5092163;28;20123;-65
2024/03/04 07:38:26;;;;;;;20.58;10.75;;;;;;;;;;5091888;28;20027;-64
2024/03/04 07:40:52;;;;;;;21.63;10.70;;;;;;;;;;5095696;28;20020;-66
2024/03/04 07:43:17;;;;;;;24.10;11.88;;;;;;;;;;5092495;28;20420;-65
2024/03/04 07:45:43;;;;;;;20.42;11.43;;;;;;;;;;5091751;28;20085;-64
2024/03/04 07:48:08;;;;;;;18.00;11.23;;;;;;;;;;5092039;28;20128;-65
2024/03/04 07:50:34;;;;;;;20.35;11.00;;;;;;;;;;5091755;28;20020;-65
2024/03/04 07:52:59;;;;;;;24.05;10.82;;;;;;;;;;5094438;28;20511;-63
2024/03/04 07:55:25;;;;;;;18.30;10.23;;;;;;;;;;5092495;28;20032;-64
2024/03/04 07:57:50;;;;;;;19.45;11.18;;;;;;;;;;5111525;28;20043;-64
2024/03/04 08:00:16;;;;;;;19.45;10.60;;;;;;;;;;5103337;28;20095;-75
2024/03/04 08:02:42;;;;;;;22.67;10.93;;;;;;;;;;5088678;28;20008;-66
2024/03/04 08:05:09;;;;;;;26.08;11.45;;;;;;;;;;5079777;28;20038;-65
2024/03/04 08:07:38;;;;;;;31.13;12.48;;;;;;;;;;5087843;28;20024;-66
2024/03/04 08:10:06;;;;;;;26.10;12.98;;;;;;;;;;5092094;28;20035;-64
2024/03/04 08:12:32;;;;;;;24.10;11.85;;;;;;;;;;5089449;28;20055;-65
2024/03/04 08:14:57;;;;;;;19.10;12.07;;;;;;;;;;5088579;28;20129;-65
2024/03/04 08:17:24;;;;;;;24.70;11.93;;;;;;;;;;5090995;28;20020;-64
2024/03/04 08:19:52;;;;;;;20.38;10.05;;;;;;;;;;5089024;28;20031;-67
2024/03/04 08:22:17;;;;;;;16.50;9.75;;;;;;;;;;5086809;28;20027;-64
2024/03/04 08:24:43;;;;;;;22.65;11.20;;;;;;;;;;5109431;28;20024;-66
2024/03/04 08:27:08;;;;;;;20.23;10.73;;;;;;;;;;5093467;28;20020;-66
2024/03/04 08:29:34;;;;;;;19.25;10.77;;;;;;;;;;5096230;28;20045;-75
2024/03/04 08:32:00;;;;;;;19.52;11.25;;;;;;;;;;5091996;28;20115;-63
2024/03/04 08:34:27;;;;;;;20.90;10.70;;;;;;;;;;5094423;28;20112;-62
2024/03/04 08:36:52;;;;;;;17.40;11.57;;;;;;;;;;5086796;28;20032;-67
2024/03/04 08:39:18;;;;;;;18.77;10.15;;;;;;;;;;5087715;28;20027;-63
2024/03/04 08:41:45;;;;;;;16.45;10.25;;;;;;;;;;5095473;28;20047;-62
2024/03/04 08:44:10;;;;;;;18.90;10.43;;;;;;;;;;5094770;28;20458;-63
2024/03/04 08:46:36;;;;;;;25.00;10.82;;;;;;;;;;5094065;28;20027;-63
2024/03/04 08:49:01;;;;;;;19.73;10.68;;;;;;;;;;5096359;28;20016;-64
2024/03/04 08:51:28;;;;;;;21.52;9.63;;;;;;;;;;5099600;28;20040;-63
2024/03/04 08:53:54;;;;;;;20.25;9.65;;;;;;;;;;5106545;28;20069;-62
2024/03/04 08:56:19;;;;;;;17.70;10.07;;;;;;;;;;5114215;28;20035;-70
2024/03/04 08:58:45;;;;;;;23.08;10.43;;;;;;;;;;5095229;28;20025;-72
2024/03/04 09:01:11;;;;;;;17.92;10.93;;;;;;;;;;5096259;28;20051;-69
2024/03/04 09:03:40;;;;;;;21.25;10.77;;;;;;;;;;5092343;28;20024;-71
2024/03/04 09:06:15;;;;;;;23.95;10.55;;;;;;;;;;5094104;28;20046;-69
2024/03/04 09:08:41;;;;;;;20.65;10.80;;;;;;;;;;5096304;28;20028;-68
2024/03/04 09:11:07;;;;;;;18.73;10.45;;;;;;;;;;5094344;28;20357;-69
2024/03/04 09:13:32;;;;;;;17.75;9.55;;;;;;;;;;5108328;28;20024;-64
2024/03/04 09:15:57;;;;;;;19.75;11.15;;;;;;;;;;5092349;28;20035;-71
2024/03/04 09:18:23;;;;;;;22.55;11.25;;;;;;;;;;5094841;28;20028;-68
2024/03/04 09:20:48;;;;;;;24.73;11.63;;;;;;;;;;5096189;28;20059;-68
2024/03/04 09:23:14;;;;;;;22.40;11.68;;;;;;;;;;5103557;28;20719;-70
2024/03/04 09:25:40;;;;;;;21.50;10.77;;;;;;;;;;5093575;28;20089;-68
2024/03/04 09:28:07;;;;;;;23.13;11.25;;;;;;;;;;5094431;28;20365;-67
2024/03/04 09:30:32;;;;;;;23.63;11.00;;;;;;;;;;5093617;28;20072;-68
2024/03/04 09:32:58;;;;;;;24.95;11.18;;;;;;;;;;5093786;28;20095;-70
2024/03/04 09:35:23;;;;;;;19.52;11.00;;;;;;;;;;5093424;28;20047;-67
2024/03/04 09:37:49;;;;;;;28.45;11.40;;;;;;;;;;5097209;28;20150;-63
2024/03/04 09:40:14;;;;;;;23.20;10.57;;;;;;;;;;5093404;28;20024;-63
2024/03/04 09:42:45;;;;;;;17.63;10.38;;;;;;;;;;5093330;28;20081;-63
2024/03/04 09:45:11;;;;;;;18.08;10.63;;;;;;;;;;5094717;28;20020;-62
2024/03/04 09:47:39;;;;;;;25.73;10.55;;;;;;;;;;5090266;28;20081;-64
2024/03/04 09:50:05;;;;;;;18.80;11.45;;;;;;;;;;5091846;28;20027;-63
2024/03/04 09:52:31;;;;;;;21.40;11.23;;;;;;;;;;5098023;28;20454;-64
2024/03/04 09:54:57;;;;;;;21.58;12.13;;;;;;;;;;5093125;28;20450;-64
2024/03/04 09:57:23;;;;;;;21.00;12.45;;;;;;;;;;5095396;28;20442;-61
2024/03/04 09:59:48;;;;;;;22.60;12.45;;;;;;;;;;5095404;28;20016;-63
2024/03/04 10:02:14;;;;;;;25.13;12.57;;;;;;;;;;5093060;28;20307;-63
2024/03/04 10:04:41;;;;;;;21.98;11.95;;;;;;;;;;5091485;28;20388;-64
2024/03/04 10:07:07;;;;;;;17.45;10.27;;;;;;;;;;5091536;28;20028;-72
2024/03/04 10:09:34;;;;;;;17.65;10.73;;;;;;;;;;5093039;28;20070;-71
2024/03/04 10:11:59;;;;;;;22.60;12.18;;;;;;;;;;5092990;28;20385;-72
2024/03/04 10:14:25;;;;;;;24.92;12.13;;;;;;;;;;5092713;28;20024;-72
2024/03/04 10:16:51;;;;;;;22.35;11.77;;;;;;;;;;5093035;28;20031;-71
2024/03/04 10:19:20;;;;;;;22.20;11.40;;;;;;;;;;5093440;28;20031;-72
2024/03/04 10:21:46;;;;;;;20.50;11.38;;;;;;;;;;5096528;28;20032;-73
2024/03/04 10:24:11;;;;;;;19.63;9.93;;;;;;;;;;5091899;28;20471;-72
2024/03/04 10:26:40;;;;;;;16.02;10.02;;;;;;;;;;5106128;28;20502;-70
2024/03/04 10:29:06;;;;;;;15.45;9.43;;;;;;;;;;5098616;28;20031;-72
2024/03/04 10:31:31;;;;;;;18.33;10.00;;;;;;;;;;5094935;28;20016;-71
2024/03/04 10:33:57;;;;;;;16.75;10.93;;;;;;;;;;5092320;28;20047;-70
2024/03/04 10:36:22;;;;;;;18.40;10.95;;;;;;;;;;5092685;28;20031;-67
2024/03/04 10:38:48;;;;;;;17.77;10.50;;;;;;;;;;5093003;28;20020;-71
2024/03/04 10:41:17;;;;;;;18.40;10.88;;;;;;;;;;5096142;28;20059;-70
2024/03/04 10:43:46;;;;;;;16.35;10.20;;;;;;;;;;5094693;28;20028;-74
2024/03/04 10:46:12;;;;;;;18.17;10.00;;;;;;;;;;5088637;28;20012;-75
2024/03/04 10:48:38;;;;;;;19.55;10.77;;;;;;;;;;5092302;28;20404;-77
2024/03/04 10:51:04;;;;;;;21.35;10.48;;;;;;;;;;5091849;28;20024;-76
2024/03/04 10:53:29;;;;;;;19.73;10.43;;;;;;;;;;5091906;28;20080;-76
2024/03/04 10:56:00;;;;;;;16.40;10.60;;;;;;;;;;5092429;28;20048;-75
2024/03/04 10:58:28;;;;;;;19.13;9.75;;;;;;;;;;5105751;28;20027;-75
2024/03/04 11:00:53;;;;;;;16.50;9.45;;;;;;;;;;5112469;27;20057;-75
2024/03/04 11:03:22;;;;;;;19.08;11.80;;;;;;;;;;5092646;28;20066;-70
2024/03/04 11:05:52;;;;;;;22.48;11.23;;;;;;;;;;5096799;28;20012;-77
2024/03/04 11:08:27;;;;;;;21.27;11.05;;;;;;;;;;5092479;28;20039;-75
2024/03/04 11:11:19;;;;;;;21.23;10.90;;;;;;;;;;5090640;28;20012;-68
2024/03/04 11:13:53;;;;;;;23.48;10.43;;;;;;;;;;5088690;28;20085;-76
2024/03/04 11:16:23;;;;;;;15.52;9.93;;;;;;;;;;5090055;28;20032;-75
2024/03/04 11:19:06;;;;;;;23.50;11.50;;;;;;;;;;5091655;28;20020;-72
2024/03/04 11:21:33;;;;;;;20.75;11.27;;;;;;;;;;5088584;28;20103;-74
2024/03/04 11:24:00;;;;;;;18.27;9.93;;;;;;;;;;5091684;28;20020;-63
2024/03/04 11:26:26;;;;;;;16.92;10.32;;;;;;;;;;5092748;28;20031;-67
2024/03/04 11:28:52;;;;;;;20.65;11.23;;;;;;;;;;5090784;28;20024;-75
2024/03/04 11:31:28;;;;;;;21.90;11.50;;;;;;;;;;5090619;28;20024;-66
2024/03/04 11:34:01;;;;;;;21.30;11.13;;;;;;;;;;5092701;28;20028;-63
2024/03/04 11:36:27;;;;;;;20.73;11.50;;;;;;;;;;5087356;28;20474;-65
2024/03/04 11:38:52;;;;;;;26.02;13.50;;;;;;;;;;5090802;28;20073;-65
2024/03/04 11:41:36;;;;;;;23.80;14.18;;;;;;;;;;5092081;28;20020;-70
2024/03/04 11:44:01;;;;;;;25.15;13.73;;;;;;;;;;5091088;28;20032;-67
2024/03/04 11:46:27;;;;;;;28.90;13.32;;;;;;;;;;5084724;28;20020;-64
2024/03/04 11:48:52;;;;;;;26.38;14.40;;;;;;;;;;5078665;28;20053;-64
2024/03/04 11:51:36;;;;;;;22.58;14.27;;;;;;;;;;5090578;28;20350;-65
2024/03/04 11:54:05;;;;;;;24.27;13.60;;;;;;;;;;5086127;28;20442;-64
2024/03/04 11:56:30;;;;;;;28.75;13.20;;;;;;;;;;5090711;28;20032;-65
2024/03/04 11:58:56;;;;;;;25.45;14.00;;;;;;;;;;5090787;28;20030;-64
2024/03/04 12:01:22;;;;;;;33.40;14.90;;;;;;;;;;5090539;28;20149;-62
2024/03/04 12:03:51;;;;;;;25.92;14.02;;;;;;;;;;5090210;28;20012;-62
2024/03/04 12:06:16;;;;;;;26.95;14.38;;;;;;;;;;5090903;28;20039;-62
2024/03/04 12:08:42;;;;;;;22.15;13.32;;;;;;;;;;5091675;28;20778;-64
2024/03/04 12:11:08;;;;;;;24.45;12.98;;;;;;;;;;5104800;28;20033;-64
2024/03/04 12:13:34;;;;;;;20.63;12.63;;;;;;;;;;5092604;27;20028;-61
2024/03/04 12:16:00;;;;;;;30.58;12.65;;;;;;;;;;5090158;28;20042;-61
2024/03/04 12:18:28;;;;;;;20.63;12.13;;;;;;;;;;5074866;28;20020;-59
2024/03/04 12:20:55;;;;;;;26.42;12.15;;;;;;;;;;5081519;28;20442;-62
2024/03/04 12:23:20;;;;;;;30.20;13.77;;;;;;;;;;5099707;28;20109;-61
2024/03/04 12:25:47;;;;;;;27.48;13.85;;;;;;;;;;5096378;28;20051;-61
2024/03/04 12:28:19;;;;;;;24.20;12.70;;;;;;;;;;5089865;28;20048;-62
2024/03/04 12:30:44;;;;;;;23.80;12.80;;;;;;;;;;5087584;28;20027;-62
2024/03/04 12:33:10;;;;;;;21.92;12.88;;;;;;;;;;5094651;28;20028;-64
2024/03/04 12:35:35;;;;;;;28.15;14.25;;;;;;;;;;5077772;28;20043;-65
2024/03/04 12:38:02;;;;;;;28.63;14.75;;;;;;;;;;5074202;28;20152;-65
2024/03/04 12:40:27;;;;;;;27.58;14.40;;;;;;;;;;5092871;28;20013;-64
2024/03/04 12:42:59;;;;;;;27.10;13.65;;;;;;;;;;5094830;28;20104;-64
2024/03/04 12:45:25;;;;;;;23.45;13.50;;;;;;;;;;5090832;28;20053;-63
2024/03/04 12:47:57;;;;;;;26.75;14.57;;;;;;;;;;5093859;28;20026;-65
2024/03/04 12:50:23;;;;;;;30.15;14.23;;;;;;;;;;5094553;28;20097;-58
2024/03/04 12:52:49;;;;;;;24.40;13.68;;;;;;;;;;5094812;28;20414;-67
2024/03/04 12:55:16;;;;;;;20.85;12.38;;;;;;;;;;5094053;28;20085;-69
2024/03/04 12:57:42;;;;;;;28.65;11.85;;;;;;;;;;5093096;28;20081;-63
2024/03/04 13:00:14;;;;;;;26.10;12.02;;;;;;;;;;5095173;28;20111;-64
2024/03/04 13:02:40;;;;;;;21.55;12.13;;;;;;;;;;5094901;28;20046;-64
2024/03/04 13:05:05;;;;;;;23.13;12.73;;;;;;;;;;5094057;28;20054;-64
2024/03/04 13:07:31;;;;;;;21.35;12.00;;;;;;;;;;5094434;28;20043;-63
2024/03/04 13:09:56;;;;;;;23.27;12.95;;;;;;;;;;5098431;28;20039;-63
2024/03/04 13:12:21;;;;;;;24.05;12.88;;;;;;;;;;5092754;28;20028;-62
2024/03/04 13:14:47;;;;;;;27.40;12.85;;;;;;;;;;5093664;28;20357;-63
2024/03/04 13:17:13;;;;;;;24.83;13.25;;;;;;;;;;5088521;28;20435;-64
2024/03/04 13:19:38;;;;;;;26.52;13.10;;;;;;;;;;5091453;28;20080;-65
2024/03/04 13:22:04;;;;;;;32.83;13.65;;;;;;;;;;5093938;28;20012;-64
2024/03/04 13:24:29;;;;;;;30.02;12.88;;;;;;;;;;5092849;28;20071;-64
2024/03/04 13:26:55;;;;;;;23.17;12.55;;;;;;;;;;5093230;28;20012;-63
2024/03/04 13:29:20;;;;;;;23.77;12.63;;;;;;;;;;5091769;28;20434;-64
2024/03/04 13:31:46;;;;;;;27.63;12.70;;;;;;;;;;5075495;28;20043;-65
2024/03/04 13:34:11;;;;;;;24.38;12.63;;;;;;;;;;5093313;28;20027;-65
2024/03/04 13:36:37;;;;;;;26.45;12.85;;;;;;;;;;5075686;28;20077;-64
2024/03/04 13:39:02;;;;;;;24.13;12.43;;;;;;;;;;5093404;28;20487;-63
2024/03/04 13:41:28;;;;;;;24.27;13.23;;;;;;;;;;5092758;28;20391;-62
2024/03/04 13:43:53;;;;;;;28.63;14.13;;;;;;;;;;5092883;28;20384;-63
2024/03/04 13:46:19;;;;;;;21.95;13.07;;;;;;;;;;5092494;28;20204;-62
2024/03/04 13:48:44;;;;;;;25.60;13.23;;;;;;;;;;5095182;28;20973;-63
2024/03/04 13:51:09;;;;;;;21.98;13.45;;;;;;;;;;5092802;28;20055;-63
2024/03/04 13:53:36;;;;;;;24.45;13.05;;;;;;;;;;5094980;28;20024;-64
2024/03/04 13:56:02;;;;;;;22.08;11.98;;;;;;;;;;5092919;28;20044;-64
2024/03/04 13:58:28;;;;;;;27.52;11.60;;;;;;;;;;5092690;28;20031;-63
2024/03/04 14:00:53;;;;;;;24.38;12.82;;;;;;;;;;5095422;28;20020;-60
2024/03/04 14:03:19;;;;;;;29.10;13.68;;;;;;;;;;5092043;28;20027;-65
2024/03/04 14:05:44;;;;;;;28.10;12.50;;;;;;;;;;5091526;28;20016;-65
2024/03/04 14:08:09;;;;;;;30.05;13.85;;;;;;;;;;5092982;28;20027;-67
2024/03/04 14:10:37;;;;;;;21.70;11.65;;;;;;;;;;5075404;28;20029;-65
2024/03/04 14:13:03;;;;;;;22.20;12.98;;;;;;;;;;5075358;28;20335;-64